sensor_id;sensor_type;location;lat;lon;timestamp;P1;durP1;ratioP1;P2;durP2;ratioP2
61483;SDS011;47349;55.640;37.692;2023-04-25T05:26:26;16.88;;;10.75;;
61483;SDS011;47349;55.640;37.692;2023-04-25T05:29:06;18.85;;;12.15;;
61483;SDS011;47349;55.640;37.692;2023-04-25T05:31:43;23.27;;;11.85;;
61483;SDS011;47349;55.640;37.692;2023-04-25T05:34:15;16.63;;;10.80;;
61483;SDS011;47349;55.640;37.692;2023-04-25T05:36:50;21.63;;;12.07;;
61483;SDS011;47349;55.640;37.692;2023-04-25T05:39:18;21.92;;;11.90;;
61483;SDS011;47349;55.640;37.692;2023-04-25T05:42:11;17.55;;;10.90;;
61483;SDS011;47349;55.640;37.692;2023-04-25T05:44:44;17.70;;;11.82;;
61483;SDS011;47349;55.640;37.692;2023-04-25T05:47:24;20.85;;;12.55;;
61483;SDS011;47349;55.640;37.692;2023-04-25T05:50:02;16.25;;;12.10;;
61483;SDS011;47349;55.640;37.692;2023-04-25T05:52:47;17.08;;;11.90;;
61483;SDS011;47349;55.640;37.692;2023-04-25T05:55:24;17.45;;;12.73;;
61483;SDS011;47349;55.640;37.692;2023-04-25T05:58:13;19.55;;;12.65;;
61483;SDS011;47349;55.640;37.692;2023-04-25T06:00:41;21.30;;;12.77;;
61483;SDS011;47349;55.640;37.692;2023-04-25T06:03:23;23.35;;;13.45;;
61483;SDS011;47349;55.640;37.692;2023-04-25T06:05:56;20.35;;;13.15;;
61483;SDS011;47349;55.640;37.692;2023-04-25T06:08:25;23.20;;;13.20;;
61483;SDS011;47349;55.640;37.692;2023-04-25T06:11:10;20.65;;;12.25;;
61483;SDS011;47349;55.640;37.692;2023-04-25T06:13:56;18.45;;;12.50;;
61483;SDS011;47349;55.640;37.692;2023-04-25T06:16:36;17.35;;;11.93;;
61483;SDS011;47349;55.640;37.692;2023-04-25T06:19:04;20.52;;;12.70;;
61483;SDS011;47349;55.640;37.692;2023-04-25T06:21:31;18.35;;;12.40;;
61483;SDS011;47349;55.640;37.692;2023-04-25T06:23:58;28.02;;;12.85;;
61483;SDS011;47349;55.640;37.692;2023-04-25T06:26:27;26.08;;;12.45;;
61483;SDS011;47349;55.640;37.692;2023-04-25T06:29:09;22.58;;;12.88;;
61483;SDS011;47349;55.640;37.692;2023-04-25T06:31:37;18.00;;;10.80;;
61483;SDS011;47349;55.640;37.692;2023-04-25T06:34:42;21.40;;;12.45;;
61483;SDS011;47349;55.640;37.692;2023-04-25T06:37:10;20.92;;;13.10;;
61483;SDS011;47349;55.640;37.692;2023-04-25T06:39:51;17.90;;;10.68;;
61483;SDS011;47349;55.640;37.692;2023-04-25T06:42:18;18.27;;;10.30;;
61483;SDS011;47349;55.640;37.692;2023-04-25T06:44:52;17.42;;;10.68;;
61483;SDS011;47349;55.640;37.692;2023-04-25T06:47:20;17.60;;;11.27;;
61483;SDS011;47349;55.640;37.692;2023-04-25T06:49:48;18.15;;;10.60;;
61483;SDS011;47349;55.640;37.692;2023-04-25T06:52:16;20.15;;;11.10;;
61483;SDS011;47349;55.640;37.692;2023-04-25T06:54:45;14.70;;;9.60;;
61483;SDS011;47349;55.640;37.692;2023-04-25T06:57:24;16.58;;;9.85;;
61483;SDS011;47349;55.640;37.692;2023-04-25T06:59:52;17.98;;;8.15;;
61483;SDS011;47349;55.640;37.692;2023-04-25T07:02:19;16.98;;;7.07;;
61483;SDS011;47349;55.640;37.692;2023-04-25T07:04:52;11.98;;;7.38;;
61483;SDS011;47349;55.640;37.692;2023-04-25T07:07:19;13.27;;;6.03;;
61483;SDS011;47349;55.640;37.692;2023-04-25T07:09:53;13.07;;;6.60;;
61483;SDS011;47349;55.640;37.692;2023-04-25T07:12:22;11.50;;;6.50;;
61483;SDS011;47349;55.640;37.692;2023-04-25T07:14:59;10.60;;;6.07;;
61483;SDS011;47349;55.640;37.692;2023-04-25T07:17:43;10.88;;;6.20;;
61483;SDS011;47349;55.640;37.692;2023-04-25T07:20:25;16.63;;;5.70;;
61483;SDS011;47349;55.640;37.692;2023-04-25T07:22:57;10.23;;;6.15;;
61483;SDS011;47349;55.640;37.692;2023-04-25T07:25:29;18.45;;;6.35;;
61483;SDS011;47349;55.640;37.692;2023-04-25T07:27:57;11.18;;;6.32;;
61483;SDS011;47349;55.640;37.692;2023-04-25T07:30:25;11.60;;;5.68;;
61483;SDS011;47349;55.640;37.692;2023-04-25T07:32:53;10.35;;;5.95;;
61483;SDS011;47349;55.640;37.692;2023-04-25T07:35:31;9.88;;;5.55;;
61483;SDS011;47349;55.640;37.692;2023-04-25T07:37:58;10.10;;;5.40;;
61483;SDS011;47349;55.640;37.692;2023-04-25T07:40:26;11.05;;;4.97;;
61483;SDS011;47349;55.640;37.692;2023-04-25T07:42:58;8.90;;;5.28;;
61483;SDS011;47349;55.640;37.692;2023-04-25T07:45:43;11.52;;;4.95;;
61483;SDS011;47349;55.640;37.692;2023-04-25T07:48:11;8.32;;;5.07;;
61483;SDS011;47349;55.640;37.692;2023-04-25T07:50:43;10.55;;;5.20;;
61483;SDS011;47349;55.640;37.692;2023-04-25T07:53:10;15.20;;;5.03;;
61483;SDS011;47349;55.640;37.692;2023-04-25T07:55:45;11.57;;;4.90;;
61483;SDS011;47349;55.640;37.692;2023-04-25T07:58:15;17.10;;;5.30;;
61483;SDS011;47349;55.640;37.692;2023-04-25T08:00:52;13.37;;;5.57;;
61483;SDS011;47349;55.640;37.692;2023-04-25T08:03:45;8.55;;;4.72;;
61483;SDS011;47349;55.640;37.692;2023-04-25T08:06:20;8.82;;;5.03;;
61483;SDS011;47349;55.640;37.692;2023-04-25T08:09:11;9.55;;;4.85;;
61483;SDS011;47349;55.640;37.692;2023-04-25T08:11:41;7.40;;;4.90;;
61483;SDS011;47349;55.640;37.692;2023-04-25T08:14:11;11.85;;;5.43;;
61483;SDS011;47349;55.640;37.692;2023-04-25T08:16:41;10.30;;;4.90;;
61483;SDS011;47349;55.640;37.692;2023-04-25T08:19:09;12.00;;;5.28;;
61483;SDS011;47349;55.640;37.692;2023-04-25T08:21:37;9.38;;;5.00;;
61483;SDS011;47349;55.640;37.692;2023-04-25T08:24:09;7.57;;;4.95;;
61483;SDS011;47349;55.640;37.692;2023-04-25T08:26:38;10.10;;;4.95;;
61483;SDS011;47349;55.640;37.692;2023-04-25T08:29:09;8.88;;;5.00;;
61483;SDS011;47349;55.640;37.692;2023-04-25T08:31:39;6.05;;;4.70;;
61483;SDS011;47349;55.640;37.692;2023-04-25T08:34:07;10.32;;;4.60;;
61483;SDS011;47349;55.640;37.692;2023-04-25T08:37:01;7.00;;;4.88;;
61483;SDS011;47349;55.640;37.692;2023-04-25T08:39:48;7.05;;;5.38;;
61483;SDS011;47349;55.640;37.692;2023-04-25T08:42:48;11.27;;;4.47;;
61483;SDS011;47349;55.640;37.692;2023-04-25T08:45:17;8.02;;;4.35;;
61483;SDS011;47349;55.640;37.692;2023-04-25T08:47:46;9.73;;;4.53;;
61483;SDS011;47349;55.640;37.692;2023-04-25T08:50:15;6.28;;;4.13;;
61483;SDS011;47349;55.640;37.692;2023-04-25T08:52:44;7.00;;;5.25;;
61483;SDS011;47349;55.640;37.692;2023-04-25T08:55:14;8.23;;;5.25;;
61483;SDS011;47349;55.640;37.692;2023-04-25T08:57:43;12.45;;;5.15;;
61483;SDS011;47349;55.640;37.692;2023-04-25T09:00:11;9.52;;;4.45;;
61483;SDS011;47349;55.640;37.692;2023-04-25T09:02:44;5.05;;;4.30;;
61483;SDS011;47349;55.640;37.692;2023-04-25T09:05:14;5.45;;;3.92;;
61483;SDS011;47349;55.640;37.692;2023-04-25T09:07:42;5.57;;;4.50;;
61483;SDS011;47349;55.640;37.692;2023-04-25T09:10:10;6.20;;;4.25;;
61483;SDS011;47349;55.640;37.692;2023-04-25T09:12:38;9.93;;;4.72;;
61483;SDS011;47349;55.640;37.692;2023-04-25T09:15:08;8.63;;;5.53;;
61483;SDS011;47349;55.640;37.692;2023-04-25T09:18:06;6.68;;;4.65;;
61483;SDS011;47349;55.640;37.692;2023-04-25T09:20:42;8.30;;;3.90;;
61483;SDS011;47349;55.640;37.692;2023-04-25T09:23:30;5.45;;;4.00;;
61483;SDS011;47349;55.640;37.692;2023-04-25T09:26:06;7.03;;;4.17;;
61483;SDS011;47349;55.640;37.692;2023-04-25T09:28:35;6.78;;;3.92;;
61483;SDS011;47349;55.640;37.692;2023-04-25T09:31:02;5.60;;;4.30;;
61483;SDS011;47349;55.640;37.692;2023-04-25T09:33:41;6.70;;;4.13;;
61483;SDS011;47349;55.640;37.692;2023-04-25T09:36:23;7.78;;;5.35;;
61483;SDS011;47349;55.640;37.692;2023-04-25T09:39:17;8.35;;;4.65;;
61483;SDS011;47349;55.640;37.692;2023-04-25T09:41:55;8.32;;;4.15;;
61483;SDS011;47349;55.640;37.692;2023-04-25T09:44:23;5.80;;;4.30;;
61483;SDS011;47349;55.640;37.692;2023-04-25T09:46:54;12.73;;;4.60;;
61483;SDS011;47349;55.640;37.692;2023-04-25T09:49:26;8.02;;;4.90;;
61483;SDS011;47349;55.640;37.692;2023-04-25T09:52:03;10.38;;;5.07;;
61483;SDS011;47349;55.640;37.692;2023-04-25T09:54:38;11.98;;;4.65;;
61483;SDS011;47349;55.640;37.692;2023-04-25T09:57:22;7.82;;;4.72;;
61483;SDS011;47349;55.640;37.692;2023-04-25T09:59:57;11.77;;;4.30;;
61483;SDS011;47349;55.640;37.692;2023-04-25T10:02:46;6.97;;;4.85;;
61483;SDS011;47349;55.640;37.692;2023-04-25T10:05:51;7.40;;;4.15;;
61483;SDS011;47349;55.640;37.692;2023-04-25T10:08:19;13.27;;;4.35;;
61483;SDS011;47349;55.640;37.692;2023-04-25T10:10:50;5.38;;;3.60;;
61483;SDS011;47349;55.640;37.692;2023-04-25T10:13:17;5.18;;;3.55;;
61483;SDS011;47349;55.640;37.692;2023-04-25T10:15:45;8.60;;;3.72;;
61483;SDS011;47349;55.640;37.692;2023-04-25T10:18:14;8.88;;;3.78;;
61483;SDS011;47349;55.640;37.692;2023-04-25T10:20:45;5.95;;;4.03;;
61483;SDS011;47349;55.640;37.692;2023-04-25T10:23:13;6.40;;;4.05;;
61483;SDS011;47349;55.640;37.692;2023-04-25T10:25:41;7.53;;;4.28;;
61483;SDS011;47349;55.640;37.692;2023-04-25T10:28:09;6.53;;;4.00;;
61483;SDS011;47349;55.640;37.692;2023-04-25T10:30:37;5.97;;;4.03;;
61483;SDS011;47349;55.640;37.692;2023-04-25T10:33:15;8.05;;;3.83;;
61483;SDS011;47349;55.640;37.692;2023-04-25T10:35:45;4.68;;;3.85;;
61483;SDS011;47349;55.640;37.692;2023-04-25T10:38:15;6.72;;;4.15;;
61483;SDS011;47349;55.640;37.692;2023-04-25T10:40:57;6.40;;;5.25;;
61483;SDS011;47349;55.640;37.692;2023-04-25T10:45:59;9.43;;;3.80;;
61483;SDS011;47349;55.640;37.692;2023-04-25T10:48:30;4.00;;;3.53;;
61483;SDS011;47349;55.640;37.692;2023-04-25T10:51:09;5.43;;;3.33;;
61483;SDS011;47349;55.640;37.692;2023-04-25T10:53:37;4.63;;;3.38;;
61483;SDS011;47349;55.640;37.692;2023-04-25T10:58:45;9.20;;;3.55;;
61483;SDS011;47349;55.640;37.692;2023-04-25T11:01:20;5.88;;;3.17;;
61483;SDS011;47349;55.640;37.692;2023-04-25T11:03:56;6.30;;;3.20;;
61483;SDS011;47349;55.640;37.692;2023-04-25T11:09:12;4.03;;;2.90;;
61483;SDS011;47349;55.640;37.692;2023-04-25T11:11:53;8.77;;;3.33;;
61483;SDS011;47349;55.640;37.692;2023-04-25T11:14:29;8.27;;;3.38;;
61483;SDS011;47349;55.640;37.692;2023-04-25T11:17:00;9.70;;;3.33;;
61483;SDS011;47349;55.640;37.692;2023-04-25T11:19:30;5.45;;;2.80;;
61483;SDS011;47349;55.640;37.692;2023-04-25T11:21:59;5.82;;;2.90;;
61483;SDS011;47349;55.640;37.692;2023-04-25T11:24:34;5.25;;;3.00;;
61483;SDS011;47349;55.640;37.692;2023-04-25T11:27:03;3.78;;;2.78;;
61483;SDS011;47349;55.640;37.692;2023-04-25T11:29:42;4.13;;;3.15;;
61483;SDS011;47349;55.640;37.692;2023-04-25T11:32:09;5.57;;;3.55;;
61483;SDS011;47349;55.640;37.692;2023-04-25T11:34:52;5.22;;;3.45;;
61483;SDS011;47349;55.640;37.692;2023-04-25T11:37:21;3.78;;;3.35;;
61483;SDS011;47349;55.640;37.692;2023-04-25T11:39:48;5.13;;;3.38;;
61483;SDS011;47349;55.640;37.692;2023-04-25T11:42:16;7.97;;;3.70;;
61483;SDS011;47349;55.640;37.692;2023-04-25T11:44:44;5.85;;;3.22;;
61483;SDS011;47349;55.640;37.692;2023-04-25T11:47:12;5.85;;;3.40;;
61483;SDS011;47349;55.640;37.692;2023-04-25T11:49:39;7.18;;;3.40;;
61483;SDS011;47349;55.640;37.692;2023-04-25T11:52:06;7.45;;;3.58;;
61483;SDS011;47349;55.640;37.692;2023-04-25T11:54:35;4.57;;;3.25;;
61483;SDS011;47349;55.640;37.692;2023-04-25T11:57:04;5.25;;;3.80;;
61483;SDS011;47349;55.640;37.692;2023-04-25T11:59:31;7.70;;;3.72;;
61483;SDS011;47349;55.640;37.692;2023-04-25T12:01:58;4.45;;;3.63;;
61483;SDS011;47349;55.640;37.692;2023-04-25T12:04:29;9.55;;;4.07;;
61483;SDS011;47349;55.640;37.692;2023-04-25T12:06:59;4.70;;;3.75;;
61483;SDS011;47349;55.640;37.692;2023-04-25T12:09:30;6.75;;;4.10;;
61483;SDS011;47349;55.640;37.692;2023-04-25T12:11:59;8.02;;;3.80;;
61483;SDS011;47349;55.640;37.692;2023-04-25T12:14:32;5.78;;;3.70;;
61483;SDS011;47349;55.640;37.692;2023-04-25T12:17:01;8.43;;;3.72;;
61483;SDS011;47349;55.640;37.692;2023-04-25T12:19:33;7.45;;;3.50;;
61483;SDS011;47349;55.640;37.692;2023-04-25T12:22:21;5.30;;;3.53;;
61483;SDS011;47349;55.640;37.692;2023-04-25T12:24:50;7.32;;;3.70;;
61483;SDS011;47349;55.640;37.692;2023-04-25T12:27:21;9.35;;;4.10;;
61483;SDS011;47349;55.640;37.692;2023-04-25T12:29:52;6.80;;;4.13;;
61483;SDS011;47349;55.640;37.692;2023-04-25T12:32:23;9.00;;;3.70;;
61483;SDS011;47349;55.640;37.692;2023-04-25T12:34:50;8.45;;;3.38;;
61483;SDS011;47349;55.640;37.692;2023-04-25T12:37:18;10.50;;;3.60;;
61483;SDS011;47349;55.640;37.692;2023-04-25T12:39:45;6.35;;;3.92;;
61483;SDS011;47349;55.640;37.692;2023-04-25T12:42:12;6.07;;;3.70;;
61483;SDS011;47349;55.640;37.692;2023-04-25T12:44:39;6.70;;;3.22;;
61483;SDS011;47349;55.640;37.692;2023-04-25T12:47:08;5.80;;;4.15;;
61483;SDS011;47349;55.640;37.692;2023-04-25T12:49:35;7.15;;;4.15;;
61483;SDS011;47349;55.640;37.692;2023-04-25T12:52:02;6.07;;;3.45;;
61483;SDS011;47349;55.640;37.692;2023-04-25T12:54:29;6.60;;;4.13;;
61483;SDS011;47349;55.640;37.692;2023-04-25T12:56:57;7.45;;;4.35;;
61483;SDS011;47349;55.640;37.692;2023-04-25T12:59:25;8.35;;;4.40;;
61483;SDS011;47349;55.640;37.692;2023-04-25T13:01:53;7.35;;;4.50;;
61483;SDS011;47349;55.640;37.692;2023-04-25T13:04:20;10.15;;;4.20;;
61483;SDS011;47349;55.640;37.692;2023-04-25T13:06:52;8.15;;;4.50;;
61483;SDS011;47349;55.640;37.692;2023-04-25T13:09:19;6.15;;;4.70;;
61483;SDS011;47349;55.640;37.692;2023-04-25T13:11:47;11.25;;;4.75;;
61483;SDS011;47349;55.640;37.692;2023-04-25T13:14:14;6.88;;;4.63;;
61483;SDS011;47349;55.640;37.692;2023-04-25T13:16:42;11.20;;;5.15;;
61483;SDS011;47349;55.640;37.692;2023-04-25T13:19:09;8.05;;;4.75;;
61483;SDS011;47349;55.640;37.692;2023-04-25T13:21:38;10.05;;;4.68;;
61483;SDS011;47349;55.640;37.692;2023-04-25T13:24:06;8.77;;;4.40;;
61483;SDS011;47349;55.640;37.692;2023-04-25T13:26:33;6.90;;;4.50;;
61483;SDS011;47349;55.640;37.692;2023-04-25T13:29:01;5.45;;;4.20;;
61483;SDS011;47349;55.640;37.692;2023-04-25T13:31:30;7.22;;;4.35;;
61483;SDS011;47349;55.640;37.692;2023-04-25T13:33:58;12.38;;;6.10;;
61483;SDS011;47349;55.640;37.692;2023-04-25T13:36:26;7.93;;;5.05;;
61483;SDS011;47349;55.640;37.692;2023-04-25T13:38:54;4.75;;;3.75;;
61483;SDS011;47349;55.640;37.692;2023-04-25T13:41:22;9.93;;;5.00;;
61483;SDS011;47349;55.640;37.692;2023-04-25T13:43:49;6.50;;;4.10;;
61483;SDS011;47349;55.640;37.692;2023-04-25T13:46:18;17.95;;;9.45;;
61483;SDS011;47349;55.640;37.692;2023-04-25T13:49:06;5.80;;;3.80;;
61483;SDS011;47349;55.640;37.692;2023-04-25T13:51:39;5.55;;;4.00;;
61483;SDS011;47349;55.640;37.692;2023-04-25T13:54:07;9.38;;;4.93;;
61483;SDS011;47349;55.640;37.692;2023-04-25T13:56:34;7.28;;;3.80;;
61483;SDS011;47349;55.640;37.692;2023-04-25T13:59:07;8.18;;;3.80;;
61483;SDS011;47349;55.640;37.692;2023-04-25T14:01:35;7.57;;;4.18;;
61483;SDS011;47349;55.640;37.692;2023-04-25T14:04:06;4.43;;;4.00;;
61483;SDS011;47349;55.640;37.692;2023-04-25T14:06:33;7.07;;;3.95;;
61483;SDS011;47349;55.640;37.692;2023-04-25T14:09:01;5.40;;;3.88;;
61483;SDS011;47349;55.640;37.692;2023-04-25T14:11:30;6.88;;;4.53;;
61483;SDS011;47349;55.640;37.692;2023-04-25T14:13:57;6.97;;;4.28;;
61483;SDS011;47349;55.640;37.692;2023-04-25T14:16:24;7.00;;;5.03;;
61483;SDS011;47349;55.640;37.692;2023-04-25T14:18:52;5.13;;;4.40;;
61483;SDS011;47349;55.640;37.692;2023-04-25T14:21:21;4.78;;;4.10;;
61483;SDS011;47349;55.640;37.692;2023-04-25T14:23:48;7.13;;;4.45;;
61483;SDS011;47349;55.640;37.692;2023-04-25T14:26:17;10.73;;;4.63;;
61483;SDS011;47349;55.640;37.692;2023-04-25T14:28:45;6.20;;;4.18;;
61483;SDS011;47349;55.640;37.692;2023-04-25T14:31:12;8.00;;;4.68;;
61483;SDS011;47349;55.640;37.692;2023-04-25T14:33:40;7.90;;;4.20;;
61483;SDS011;47349;55.640;37.692;2023-04-25T14:36:09;8.32;;;5.20;;
61483;SDS011;47349;55.640;37.692;2023-04-25T14:38:37;7.90;;;5.05;;
61483;SDS011;47349;55.640;37.692;2023-04-25T14:41:04;8.02;;;5.47;;
61483;SDS011;47349;55.640;37.692;2023-04-25T14:43:45;8.25;;;4.93;;
61483;SDS011;47349;55.640;37.692;2023-04-25T14:46:13;8.07;;;5.30;;
61483;SDS011;47349;55.640;37.692;2023-04-25T14:48:54;9.20;;;5.50;;
61483;SDS011;47349;55.640;37.692;2023-04-25T14:51:37;9.77;;;5.30;;
61483;SDS011;47349;55.640;37.692;2023-04-25T14:54:06;8.88;;;5.13;;
61483;SDS011;47349;55.640;37.692;2023-04-25T14:56:38;11.50;;;5.70;;
61483;SDS011;47349;55.640;37.692;2023-04-25T14:59:07;10.93;;;5.50;;
61483;SDS011;47349;55.640;37.692;2023-04-25T15:01:49;12.00;;;6.90;;
61483;SDS011;47349;55.640;37.692;2023-04-25T15:04:32;7.78;;;5.97;;
61483;SDS011;47349;55.640;37.692;2023-04-25T15:06:59;9.65;;;6.50;;
61483;SDS011;47349;55.640;37.692;2023-04-25T15:09:27;8.93;;;5.65;;
61483;SDS011;47349;55.640;37.692;2023-04-25T15:12:10;13.02;;;5.68;;
61483;SDS011;47349;55.640;37.692;2023-04-25T15:14:38;8.85;;;5.63;;
61483;SDS011;47349;55.640;37.692;2023-04-25T15:17:10;13.32;;;5.88;;
61483;SDS011;47349;55.640;37.692;2023-04-25T15:19:55;9.60;;;5.10;;
61483;SDS011;47349;55.640;37.692;2023-04-25T15:23:01;10.45;;;5.32;;
61483;SDS011;47349;55.640;37.692;2023-04-25T15:25:43;12.65;;;5.47;;
61483;SDS011;47349;55.640;37.692;2023-04-25T15:28:25;8.15;;;5.07;;
61483;SDS011;47349;55.640;37.692;2023-04-25T15:31:06;7.07;;;4.50;;
61483;SDS011;47349;55.640;37.692;2023-04-25T15:33:49;7.80;;;5.38;;
61483;SDS011;47349;55.640;37.692;2023-04-25T15:36:21;7.30;;;4.57;;
61483;SDS011;47349;55.640;37.692;2023-04-25T15:39:02;6.82;;;4.47;;
61483;SDS011;47349;55.640;37.692;2023-04-25T15:41:43;8.65;;;4.85;;
61483;SDS011;47349;55.640;37.692;2023-04-25T15:44:13;10.23;;;5.18;;
61483;SDS011;47349;55.640;37.692;2023-04-25T15:47:12;9.02;;;5.30;;
61483;SDS011;47349;55.640;37.692;2023-04-25T15:49:40;7.65;;;5.28;;
61483;SDS011;47349;55.640;37.692;2023-04-25T15:52:21;7.57;;;4.65;;
61483;SDS011;47349;55.640;37.692;2023-04-25T15:55:04;8.57;;;5.25;;
61483;SDS011;47349;55.640;37.692;2023-04-25T15:57:49;7.68;;;5.05;;
61483;SDS011;47349;55.640;37.692;2023-04-25T16:00:30;9.00;;;5.20;;
61483;SDS011;47349;55.640;37.692;2023-04-25T16:03:15;6.88;;;5.55;;
61483;SDS011;47349;55.640;37.692;2023-04-25T16:05:43;8.32;;;4.60;;
61483;SDS011;47349;55.640;37.692;2023-04-25T16:08:25;9.30;;;5.45;;
61483;SDS011;47349;55.640;37.692;2023-04-25T16:11:09;9.70;;;6.10;;
61483;SDS011;47349;55.640;37.692;2023-04-25T16:13:45;8.95;;;5.70;;
61483;SDS011;47349;55.640;37.692;2023-04-25T16:16:13;8.88;;;4.65;;
61483;SDS011;47349;55.640;37.692;2023-04-25T16:18:41;11.00;;;4.85;;
61483;SDS011;47349;55.640;37.692;2023-04-25T16:21:13;7.80;;;4.78;;
61483;SDS011;47349;55.640;37.692;2023-04-25T16:23:42;10.15;;;5.07;;
61483;SDS011;47349;55.640;37.692;2023-04-25T16:26:11;12.57;;;4.93;;
61483;SDS011;47349;55.640;37.692;2023-04-25T16:28:47;10.55;;;5.30;;
61483;SDS011;47349;55.640;37.692;2023-04-25T16:31:18;8.02;;;4.88;;
61483;SDS011;47349;55.640;37.692;2023-04-25T16:34:14;9.17;;;5.20;;
61483;SDS011;47349;55.640;37.692;2023-04-25T16:36:41;9.93;;;4.70;;
61483;SDS011;47349;55.640;37.692;2023-04-25T16:39:22;6.50;;;4.53;;
61483;SDS011;47349;55.640;37.692;2023-04-25T16:41:51;6.00;;;4.60;;
61483;SDS011;47349;55.640;37.692;2023-04-25T16:44:19;10.80;;;4.82;;
61483;SDS011;47349;55.640;37.692;2023-04-25T16:46:47;20.70;;;6.03;;
61483;SDS011;47349;55.640;37.692;2023-04-25T16:49:25;7.72;;;4.93;;
61483;SDS011;47349;55.640;37.692;2023-04-25T16:51:55;9.07;;;4.65;;
61483;SDS011;47349;55.640;37.692;2023-04-25T16:54:30;12.10;;;4.65;;
61483;SDS011;47349;55.640;37.692;2023-04-25T16:57:11;10.30;;;4.95;;
61483;SDS011;47349;55.640;37.692;2023-04-25T16:59:42;10.80;;;4.78;;
61483;SDS011;47349;55.640;37.692;2023-04-25T17:02:19;16.35;;;4.60;;
61483;SDS011;47349;55.640;37.692;2023-04-25T17:05:02;10.50;;;4.78;;
61483;SDS011;47349;55.640;37.692;2023-04-25T17:07:29;9.23;;;4.90;;
61483;SDS011;47349;55.640;37.692;2023-04-25T17:10:06;8.07;;;5.45;;
61483;SDS011;47349;55.640;37.692;2023-04-25T17:12:34;10.45;;;4.50;;
61483;SDS011;47349;55.640;37.692;2023-04-25T17:15:01;8.05;;;4.63;;
61483;SDS011;47349;55.640;37.692;2023-04-25T17:17:30;9.35;;;4.90;;
61483;SDS011;47349;55.640;37.692;2023-04-25T17:19:58;8.25;;;4.60;;
61483;SDS011;47349;55.640;37.692;2023-04-25T17:22:27;7.97;;;4.85;;
61483;SDS011;47349;55.640;37.692;2023-04-25T17:25:08;10.90;;;4.57;;
61483;SDS011;47349;55.640;37.692;2023-04-25T17:27:36;7.78;;;4.32;;
61483;SDS011;47349;55.640;37.692;2023-04-25T17:30:13;9.80;;;4.33;;
61483;SDS011;47349;55.640;37.692;2023-04-25T17:32:42;8.85;;;4.70;;
61483;SDS011;47349;55.640;37.692;2023-04-25T17:35:30;6.05;;;4.60;;
61483;SDS011;47349;55.640;37.692;2023-04-25T17:38:01;6.32;;;4.97;;
61483;SDS011;47349;55.640;37.692;2023-04-25T17:40:30;7.30;;;4.80;;
61483;SDS011;47349;55.640;37.692;2023-04-25T17:42:57;10.57;;;4.65;;
61483;SDS011;47349;55.640;37.692;2023-04-25T17:45:25;8.52;;;4.78;;
61483;SDS011;47349;55.640;37.692;2023-04-25T17:48:11;9.32;;;4.90;;
61483;SDS011;47349;55.640;37.692;2023-04-25T17:50:52;8.23;;;5.75;;
61483;SDS011;47349;55.640;37.692;2023-04-25T17:54:20;9.70;;;5.35;;
61483;SDS011;47349;55.640;37.692;2023-04-25T17:57:04;8.98;;;6.50;;
61483;SDS011;47349;55.640;37.692;2023-04-25T17:59:34;9.02;;;5.78;;
61483;SDS011;47349;55.640;37.692;2023-04-25T18:02:15;12.73;;;6.80;;
61483;SDS011;47349;55.640;37.692;2023-04-25T18:04:47;15.02;;;7.28;;
61483;SDS011;47349;55.640;37.692;2023-04-25T18:07:20;11.65;;;6.75;;
61483;SDS011;47349;55.640;37.692;2023-04-25T18:10:05;9.68;;;6.97;;
61483;SDS011;47349;55.640;37.692;2023-04-25T18:12:54;8.80;;;6.38;;
61483;SDS011;47349;55.640;37.692;2023-04-25T18:15:35;8.70;;;6.30;;
61483;SDS011;47349;55.640;37.692;2023-04-25T18:18:37;12.00;;;7.30;;
61483;SDS011;47349;55.640;37.692;2023-04-25T18:21:20;11.65;;;7.15;;
61483;SDS011;47349;55.640;37.692;2023-04-25T18:23:49;8.63;;;7.15;;
61483;SDS011;47349;55.640;37.692;2023-04-25T18:26:20;11.40;;;7.32;;
61483;SDS011;47349;55.640;37.692;2023-04-25T18:28:48;14.50;;;8.13;;
61483;SDS011;47349;55.640;37.692;2023-04-25T18:31:16;10.20;;;7.30;;
61483;SDS011;47349;55.640;37.692;2023-04-25T18:33:53;10.37;;;7.57;;
61483;SDS011;47349;55.640;37.692;2023-04-25T18:36:26;9.18;;;7.30;;
61483;SDS011;47349;55.640;37.692;2023-04-25T18:39:11;10.80;;;7.53;;
61483;SDS011;47349;55.640;37.692;2023-04-25T18:41:51;12.18;;;7.93;;
61483;SDS011;47349;55.640;37.692;2023-04-25T18:44:30;16.65;;;9.48;;
61483;SDS011;47349;55.640;37.692;2023-04-25T18:47:13;23.20;;;11.00;;
61483;SDS011;47349;55.640;37.692;2023-04-25T18:50:01;13.63;;;10.20;;
61483;SDS011;47349;55.640;37.692;2023-04-25T18:52:35;13.50;;;8.85;;
61483;SDS011;47349;55.640;37.692;2023-04-25T18:55:22;14.13;;;8.30;;
61483;SDS011;47349;55.640;37.692;2023-04-25T18:58:05;14.23;;;8.63;;
61483;SDS011;47349;55.640;37.692;2023-04-25T19:00:36;14.93;;;9.73;;
61483;SDS011;47349;55.640;37.692;2023-04-25T19:03:18;12.70;;;8.80;;
61483;SDS011;47349;55.640;37.692;2023-04-25T19:05:53;13.32;;;8.60;;
61483;SDS011;47349;55.640;37.692;2023-04-25T19:08:22;15.35;;;9.35;;
61483;SDS011;47349;55.640;37.692;2023-04-25T19:11:06;16.55;;;9.73;;
61483;SDS011;47349;55.640;37.692;2023-04-25T19:13:48;15.18;;;9.90;;
61483;SDS011;47349;55.640;37.692;2023-04-25T19:16:30;15.45;;;9.13;;
61483;SDS011;47349;55.640;37.692;2023-04-25T19:19:17;12.20;;;8.82;;
61483;SDS011;47349;55.640;37.692;2023-04-25T19:21:50;17.33;;;9.27;;
61483;SDS011;47349;55.640;37.692;2023-04-25T19:24:43;17.65;;;9.00;;
61483;SDS011;47349;55.640;37.692;2023-04-25T19:27:25;15.50;;;8.80;;
61483;SDS011;47349;55.640;37.692;2023-04-25T19:30:26;16.58;;;9.73;;
61483;SDS011;47349;55.640;37.692;2023-04-25T19:33:07;25.77;;;9.90;;
61483;SDS011;47349;55.640;37.692;2023-04-25T19:35:48;16.45;;;9.10;;
61483;SDS011;47349;55.640;37.692;2023-04-25T19:38:21;22.77;;;8.98;;
61483;SDS011;47349;55.640;37.692;2023-04-25T19:40:53;14.88;;;8.75;;
61483;SDS011;47349;55.640;37.692;2023-04-25T19:43:30;15.85;;;9.25;;
61483;SDS011;47349;55.640;37.692;2023-04-25T19:46:12;12.65;;;9.13;;
61483;SDS011;47349;55.640;37.692;2023-04-25T19:48:55;11.93;;;8.60;;
61483;SDS011;47349;55.640;37.692;2023-04-25T19:51:41;12.65;;;8.32;;
61483;SDS011;47349;55.640;37.692;2023-04-25T19:54:23;11.52;;;8.05;;
61483;SDS011;47349;55.640;37.692;2023-04-25T19:56:51;15.57;;;8.85;;
61483;SDS011;47349;55.640;37.692;2023-04-25T19:59:20;12.68;;;8.45;;
61483;SDS011;47349;55.640;37.692;2023-04-25T20:02:03;13.30;;;8.13;;
61483;SDS011;47349;55.640;37.692;2023-04-25T20:04:31;12.82;;;8.63;;
61483;SDS011;47349;55.640;37.692;2023-04-25T20:07:14;12.00;;;8.38;;
61483;SDS011;47349;55.640;37.692;2023-04-25T20:09:44;12.15;;;6.78;;
61483;SDS011;47349;55.640;37.692;2023-04-25T20:12:12;11.07;;;7.75;;
61483;SDS011;47349;55.640;37.692;2023-04-25T20:14:53;11.40;;;6.30;;
61483;SDS011;47349;55.640;37.692;2023-04-25T20:17:22;13.00;;;7.60;;
61483;SDS011;47349;55.640;37.692;2023-04-25T20:19:50;11.25;;;7.07;;
61483;SDS011;47349;55.640;37.692;2023-04-25T20:22:22;9.80;;;6.75;;
61483;SDS011;47349;55.640;37.692;2023-04-25T20:24:51;9.57;;;6.25;;
61483;SDS011;47349;55.640;37.692;2023-04-25T20:27:32;8.50;;;5.63;;
61483;SDS011;47349;55.640;37.692;2023-04-25T20:30:13;9.65;;;5.80;;
61483;SDS011;47349;55.640;37.692;2023-04-25T20:32:42;13.77;;;6.30;;
61483;SDS011;47349;55.640;37.692;2023-04-25T20:35:10;9.73;;;5.95;;
61483;SDS011;47349;55.640;37.692;2023-04-25T20:37:52;10.48;;;6.53;;
61483;SDS011;47349;55.640;37.692;2023-04-25T20:40:33;6.32;;;5.20;;
61483;SDS011;47349;55.640;37.692;2023-04-25T20:43:00;7.25;;;5.47;;